createdAt,value
2023-03-30T00:01:22.948Z,97508.53
2023-03-30T00:03:55.400Z,97506.03
2023-03-30T00:06:24.445Z,97501.56
2023-03-30T00:08:57.329Z,97508.84
2023-03-30T00:11:33.963Z,97493.06
2023-03-30T00:14:02.612Z,97489.63
2023-03-30T00:16:31.217Z,97482.63
2023-03-30T00:19:00.995Z,97483.63
2023-03-30T00:21:32.016Z,97488.91
2023-03-30T00:24:00.267Z,97479.31
2023-03-30T00:26:28.542Z,97487.41
2023-03-30T00:28:56.995Z,97471.50
2023-03-30T00:31:25.557Z,97471.50
2023-03-30T00:33:53.856Z,97464.50
2023-03-30T00:36:23.614Z,97459.38
2023-03-30T00:38:51.908Z,97449.91
2023-03-30T00:41:23.187Z,97455.34
2023-03-30T00:44:00.869Z,97457.19
2023-03-30T00:46:29.646Z,97451.22
2023-03-30T00:49:00.607Z,97447.88
2023-03-30T00:51:30.552Z,97445.38
2023-03-30T00:54:05.797Z,97443.88
2023-03-30T00:56:34.717Z,97441.22
2023-03-30T00:59:04.161Z,97435.22
2023-03-30T01:01:39.137Z,97436.06
2023-03-30T01:04:09.989Z,97444.19
2023-03-30T01:06:43.464Z,97445.19
2023-03-30T01:09:12.167Z,97444.34
2023-03-30T01:11:40.994Z,97445.31
2023-03-30T01:14:12.760Z,97450.94
2023-03-30T01:16:49.171Z,97453.75
2023-03-30T01:20:12.634Z,97447.91
2023-03-30T01:23:14.526Z,97438.75
2023-03-30T01:26:38.080Z,97439.22
2023-03-30T01:29:16.731Z,97425.28
2023-03-30T01:32:20.652Z,97421.78
2023-03-30T01:35:39.574Z,97424.44
2023-03-30T01:38:42.277Z,97428.06
2023-03-30T01:41:16.590Z,97424.72
2023-03-30T01:43:54.664Z,97422.78
2023-03-30T01:46:31.204Z,97424.44
2023-03-30T01:49:12.518Z,97414.81
2023-03-30T01:51:45.378Z,97412.31
2023-03-30T01:54:18.709Z,97411.47
2023-03-30T01:56:53.760Z,97408.69
2023-03-30T01:59:27.807Z,97400.88
2023-03-30T02:02:02.698Z,97401.56
2023-03-30T02:04:36.191Z,97393.75
2023-03-30T02:07:12.564Z,97398.91
2023-03-30T02:09:43.408Z,97402.41
2023-03-30T02:12:14.496Z,97397.09
2023-03-30T02:14:44.096Z,97399.75
2023-03-30T02:17:17.190Z,97397.91
2023-03-30T02:19:47.405Z,97405.88
2023-03-30T02:22:17.696Z,97397.91
2023-03-30T02:24:49.200Z,97403.38
2023-03-30T02:27:19.345Z,97412.16
2023-03-30T02:29:47.795Z,97411.31
2023-03-30T02:32:20.348Z,97414.97
2023-03-30T02:35:23.997Z,97408.16
2023-03-30T02:38:38.882Z,97404.81
2023-03-30T02:41:26.338Z,97405.81
2023-03-30T02:44:08.072Z,97395.38
2023-03-30T02:47:01.636Z,97404.16
2023-03-30T02:49:50.698Z,97398.19
2023-03-30T02:52:34.092Z,97405.13
2023-03-30T02:55:14.982Z,97390.53
2023-03-30T02:57:56.818Z,97402.94
2023-03-30T03:00:35.317Z,97397.94
2023-03-30T03:03:12.094Z,97374.69
2023-03-30T03:05:44.779Z,97384.66
2023-03-30T03:08:16.577Z,97394.88
2023-03-30T03:10:44.882Z,97382.75
2023-03-30T03:13:16.464Z,97369.97
2023-03-30T03:15:46.384Z,97376.22
2023-03-30T03:18:15.098Z,97374.88
2023-03-30T03:20:43.590Z,97373.06
2023-03-30T03:23:11.832Z,97361.94
2023-03-30T03:25:40.251Z,97344.69
2023-03-30T03:28:08.852Z,97351.09
2023-03-30T03:30:37.639Z,97332.56
2023-03-30T03:33:10.071Z,97323.13
2023-03-30T03:35:39.628Z,97310.03
2023-03-30T03:38:09.021Z,97293.16
2023-03-30T03:40:37.398Z,97278.09
2023-03-30T03:43:05.776Z,97251.53
2023-03-30T03:45:34.357Z,97244.25
2023-03-30T03:48:02.653Z,97247.59
2023-03-30T03:50:38.226Z,97270.59
2023-03-30T03:53:06.523Z,97285.38
2023-03-30T03:55:35.721Z,97285.88
2023-03-30T03:58:07.386Z,97294.50
2023-03-30T04:00:42.132Z,97297.66
2023-03-30T04:03:12.273Z,97291.91
2023-03-30T04:05:42.775Z,97297.06
2023-03-30T04:08:14.937Z,97302.88
2023-03-30T04:10:43.514Z,97303.56
2023-03-30T04:13:11.965Z,97308.41
2023-03-30T04:15:40.191Z,97309.06
2023-03-30T04:18:15.555Z,97308.59
2023-03-30T04:20:48.131Z,97308.28
2023-03-30T04:23:21.823Z,97322.22
2023-03-30T04:25:51.912Z,97327.53
2023-03-30T04:28:24.722Z,97322.09
2023-03-30T04:30:53.007Z,97322.91
2023-03-30T04:33:21.243Z,97327.22
2023-03-30T04:35:50.910Z,97323.72
2023-03-30T04:38:22.393Z,97319.28
2023-03-30T04:40:51.060Z,97318.44
2023-03-30T04:43:21.572Z,97328.06
2023-03-30T04:45:51.363Z,97344.13
2023-03-30T04:48:20.701Z,97353.19
2023-03-30T04:50:52.019Z,97375.25
2023-03-30T04:53:23.035Z,97374.56
2023-03-30T04:55:52.792Z,97377.19
2023-03-30T04:58:23.989Z,97371.09
2023-03-30T05:00:52.276Z,97382.50
2023-03-30T05:03:23.269Z,97392.28
2023-03-30T05:05:53.283Z,97386.00
2023-03-30T05:08:21.533Z,97396.59
2023-03-30T05:10:49.921Z,97390.31
2023-03-30T05:13:18.320Z,97406.75
2023-03-30T05:15:46.617Z,97411.19
2023-03-30T05:18:14.964Z,97421.66
2023-03-30T05:20:43.335Z,97422.34
2023-03-30T05:23:12.941Z,97413.69
2023-03-30T05:25:45.295Z,97418.19
2023-03-30T05:28:13.705Z,97412.19
2023-03-30T05:30:41.995Z,97408.69
2023-03-30T05:33:12.992Z,97410.53
2023-03-30T05:35:41.341Z,97394.78
2023-03-30T05:38:12.695Z,97383.34
2023-03-30T05:40:42.405Z,97374.69
2023-03-30T05:43:10.786Z,97376.41
2023-03-30T05:45:39.084Z,97377.34
2023-03-30T05:48:08.195Z,97388.81
2023-03-30T05:50:36.540Z,97393.09
2023-03-30T05:53:04.845Z,97396.75
2023-03-30T05:55:33.239Z,97401.06
2023-03-30T05:58:03.991Z,97400.09
2023-03-30T06:00:34.667Z,97398.25
2023-03-30T06:03:03.093Z,97400.75
2023-03-30T06:05:33.661Z,97396.13
2023-03-30T06:08:01.937Z,97391.69
2023-03-30T06:10:30.282Z,97386.22
2023-03-30T06:12:58.655Z,97372.13
2023-03-30T06:15:28.509Z,97371.97
2023-03-30T06:17:59.281Z,97371.81
2023-03-30T06:20:27.783Z,97362.72
2023-03-30T06:22:56.150Z,97363.41
2023-03-30T06:25:24.616Z,97356.31
2023-03-30T06:27:53.129Z,97359.75
2023-03-30T06:30:21.586Z,97367.56
2023-03-30T06:32:51.280Z,97360.44
2023-03-30T06:35:21.235Z,97361.94
2023-03-30T06:37:52.183Z,97355.66
2023-03-30T06:40:20.901Z,97347.38
2023-03-30T06:42:49.268Z,97329.66
2023-03-30T06:45:17.816Z,97327.69
2023-03-30T06:47:46.250Z,97332.69
2023-03-30T06:50:16.186Z,97318.22
2023-03-30T06:52:44.468Z,97307.00
2023-03-30T06:55:13.066Z,97298.88
2023-03-30T06:57:41.600Z,97293.47
2023-03-30T07:00:14.170Z,97290.41
2023-03-30T07:02:43.301Z,97296.09
2023-03-30T07:05:13.171Z,97313.38
2023-03-30T07:07:43.201Z,97309.81
2023-03-30T07:10:12.756Z,97308.53
2023-03-30T07:12:42.743Z,97310.22
2023-03-30T07:15:12.400Z,97301.94
2023-03-30T07:17:41.132Z,97312.41
2023-03-30T07:20:14.900Z,97312.94
2023-03-30T07:22:44.769Z,97299.81
2023-03-30T07:25:14.483Z,97309.63
2023-03-30T07:27:42.724Z,97292.53
2023-03-30T07:30:21.147Z,97292.50
2023-03-30T07:32:50.498Z,97280.03
2023-03-30T07:35:19.285Z,97276.56
2023-03-30T07:37:50.961Z,97283.34
2023-03-30T07:40:19.916Z,97273.72
2023-03-30T07:42:48.919Z,97275.19
2023-03-30T07:45:17.545Z,97274.50
2023-03-30T07:47:45.883Z,97270.34
2023-03-30T07:50:14.341Z,97271.69
2023-03-30T07:52:42.687Z,97271.81
2023-03-30T07:55:12.400Z,97262.47
2023-03-30T07:57:40.859Z,97268.94
2023-03-30T08:00:14.500Z,97272.06
2023-03-30T08:02:43.087Z,97268.72
2023-03-30T08:05:11.736Z,97271.72
2023-03-30T08:07:40.321Z,97259.72
2023-03-30T08:10:11.415Z,97243.03
2023-03-30T08:12:39.799Z,97223.06
2023-03-30T08:15:09.736Z,97227.03
2023-03-30T08:17:38.151Z,97219.53
2023-03-30T08:20:10.832Z,97229.00
2023-03-30T08:22:39.494Z,97226.78
2023-03-30T08:25:09.312Z,97214.13
2023-03-30T08:27:39.242Z,97209.66
2023-03-30T08:30:13.296Z,97213.47
2023-03-30T08:32:41.631Z,97211.81
2023-03-30T08:35:11.607Z,97216.09
2023-03-30T08:37:40.296Z,97210.06
2023-03-30T08:40:12.844Z,97212.22
2023-03-30T08:43:08.217Z,97223.38
2023-03-30T08:45:42.674Z,97223.31
2023-03-30T08:48:18.550Z,97227.28
2023-03-30T08:50:55.280Z,97222.06
2023-03-30T08:53:23.800Z,97214.81
2023-03-30T08:55:57.184Z,97204.47
2023-03-30T08:58:40.027Z,97199.44
2023-03-30T09:01:18.216Z,97201.56
2023-03-30T09:04:02.082Z,97204.50
2023-03-30T09:06:45.954Z,97200.66
2023-03-30T09:09:17.950Z,97183.09
2023-03-30T09:11:47.674Z,97179.88
2023-03-30T09:14:27.716Z,97168.50
2023-03-30T09:17:04.122Z,97160.75
2023-03-30T09:19:37.140Z,97157.53
2023-03-30T09:22:07.476Z,97147.16
2023-03-30T09:24:36.282Z,97155.28
2023-03-30T09:27:14.284Z,97165.78
2023-03-30T09:29:49.715Z,97180.59
2023-03-30T09:32:31.231Z,97225.38
2023-03-30T09:35:07.760Z,97228.88
2023-03-30T09:37:37.308Z,97215.19
2023-03-30T09:40:26.613Z,97207.81
2023-03-30T09:43:05.818Z,97186.09
2023-03-30T09:45:37.274Z,97192.72
2023-03-30T09:48:08.634Z,97189.03
2023-03-30T09:50:41.047Z,97169.34
2023-03-30T09:53:22.214Z,97168.16
2023-03-30T09:56:01.413Z,97165.69
2023-03-30T09:58:32.424Z,97156.72
2023-03-30T10:01:08.810Z,97147.25
2023-03-30T10:03:37.514Z,97135.00
2023-03-30T10:06:09.370Z,97142.25
2023-03-30T10:08:44.206Z,97152.56
2023-03-30T10:11:13.131Z,97144.63
2023-03-30T10:13:44.624Z,97141.41
2023-03-30T10:16:29.032Z,97147.03
2023-03-30T10:19:02.847Z,97154.09
2023-03-30T10:21:33.283Z,97154.97
2023-03-30T10:24:08.195Z,97147.59
2023-03-30T10:26:39.042Z,97144.53
2023-03-30T10:29:11.026Z,97151.59
2023-03-30T10:31:46.215Z,97156.38
2023-03-30T10:34:20.267Z,97154.00
2023-03-30T10:36:51.899Z,97158.78
2023-03-30T10:39:35.390Z,97162.69
2023-03-30T10:42:07.387Z,97160.25
2023-03-30T10:44:41.993Z,97164.81
2023-03-30T10:47:36.075Z,97167.13
2023-03-30T10:50:12.255Z,97156.69
2023-03-30T10:52:59.035Z,97175.44
2023-03-30T10:55:35.138Z,97190.53
2023-03-30T10:58:21.469Z,97179.06
2023-03-30T11:01:02.410Z,97180.59
2023-03-30T11:03:33.209Z,97188.47
2023-03-30T11:06:08.454Z,97175.19
2023-03-30T11:08:40.667Z,97168.81
2023-03-30T11:11:14.735Z,97176.25
2023-03-30T11:13:48.015Z,97183.31
2023-03-30T11:16:22.869Z,97181.97
2023-03-30T11:18:57.842Z,97189.22
2023-03-30T11:21:33.611Z,97196.47
2023-03-30T11:24:08.369Z,97208.22
2023-03-30T11:26:42.001Z,97204.75
2023-03-30T11:29:29.569Z,97203.97
2023-03-30T11:32:14.674Z,97216.78
2023-03-30T11:34:57.542Z,97224.59
2023-03-30T11:37:34.058Z,97218.03
2023-03-30T11:40:16.442Z,97234.72
2023-03-30T11:42:44.922Z,97238.47
2023-03-30T11:45:29.298Z,97242.78
2023-03-30T11:48:15.044Z,97254.47
2023-03-30T11:51:04.433Z,97261.09
2023-03-30T11:53:39.693Z,97270.16
2023-03-30T11:56:11.993Z,97267.06
2023-03-30T11:58:45.815Z,97269.28
2023-03-30T12:01:33.411Z,97266.97
2023-03-30T12:04:09.294Z,97274.53
2023-03-30T12:06:42.144Z,97277.22
2023-03-30T12:09:25.685Z,97286.03
2023-03-30T12:12:04.330Z,97291.75
2023-03-30T12:14:49.039Z,97288.03
2023-03-30T12:17:36.423Z,97289.59
2023-03-30T12:20:15.946Z,97308.53
2023-03-30T12:22:53.743Z,97311.56
2023-03-30T12:25:30.035Z,97303.91
2023-03-30T12:28:04.446Z,97275.50
2023-03-30T12:30:48.477Z,97286.59
2023-03-30T12:33:20.502Z,97280.78
2023-03-30T12:35:58.712Z,97280.75
2023-03-30T12:38:38.455Z,97289.34
2023-03-30T12:41:18.563Z,97281.69
2023-03-30T12:44:39.049Z,97282.28
2023-03-30T12:47:36.745Z,97278.91
2023-03-30T12:50:24.662Z,97264.88
2023-03-30T12:53:20.387Z,97244.72
2023-03-30T12:55:55.725Z,97245.09
2023-03-30T12:58:59.530Z,97249.97
2023-03-30T13:01:51.224Z,97254.69
2023-03-30T13:04:24.107Z,97242.53
2023-03-30T13:06:55.798Z,97233.44
2023-03-30T13:09:36.600Z,97224.38
2023-03-30T13:12:36.304Z,97203.75
2023-03-30T13:15:31.821Z,97182.97
2023-03-30T13:18:02.398Z,97202.03
2023-03-30T13:20:34.982Z,97205.56
2023-03-30T13:23:26.411Z,97211.75
2023-03-30T13:26:07.827Z,97208.88
2023-03-30T13:28:56.660Z,97201.66
2023-03-30T13:31:45.229Z,97210.31
2023-03-30T13:34:31.782Z,97209.75
2023-03-30T13:37:08.338Z,97216.75
2023-03-30T13:39:42.508Z,97222.56
2023-03-30T13:42:34.885Z,97215.16
2023-03-30T13:45:19.403Z,97218.84
2023-03-30T13:48:06.034Z,97224.47
2023-03-30T13:50:36.398Z,97233.94
2023-03-30T13:53:11.135Z,97219.94
2023-03-30T13:55:43.498Z,97210.72
2023-03-30T13:58:17.674Z,97227.56
2023-03-30T14:00:51.641Z,97230.25
2023-03-30T14:03:37.488Z,97238.44
2023-03-30T14:06:09.771Z,97237.66
2023-03-30T14:08:41.182Z,97234.31
2023-03-30T14:11:19.498Z,97231.00
2023-03-30T14:13:53.097Z,97219.69
2023-03-30T14:16:26.036Z,97216.56
2023-03-30T14:18:56.456Z,97211.78
2023-03-30T14:21:25.291Z,97210.13
2023-03-30T14:23:55.370Z,97207.00
2023-03-30T14:26:26.432Z,97211.75
2023-03-30T14:28:57.184Z,97210.25
2023-03-30T14:31:27.855Z,97190.28
2023-03-30T14:33:56.732Z,97198.88
2023-03-30T14:36:25.574Z,97196.56
2023-03-30T14:38:57.393Z,97191.59
2023-03-30T14:41:28.334Z,97195.19
2023-03-30T14:43:59.132Z,97203.50
2023-03-30T14:46:37.055Z,97194.84
2023-03-30T14:49:06.166Z,97194.78
2023-03-30T14:51:40.509Z,97192.78
2023-03-30T14:54:11.559Z,97199.97
2023-03-30T14:56:41.196Z,97196.94
2023-03-30T14:59:12.142Z,97180.19
2023-03-30T15:01:44.133Z,97172.28
2023-03-30T15:04:16.721Z,97165.13
2023-03-30T15:06:47.273Z,97172.56
2023-03-30T15:09:19.126Z,97167.44
2023-03-30T15:11:52.325Z,97149.63
2023-03-30T15:14:25.283Z,97150.38
2023-03-30T15:16:57.614Z,97156.72
2023-03-30T15:19:31.523Z,97156.34
2023-03-30T15:22:04.344Z,97155.63
2023-03-30T15:24:37.854Z,97147.16
2023-03-30T15:27:11.709Z,97159.66
2023-03-30T15:29:41.786Z,97147.16
2023-03-30T15:32:17.759Z,97142.00
2023-03-30T15:35:08.351Z,97156.91
2023-03-30T15:37:37.541Z,97155.16
2023-03-30T15:40:28.453Z,97145.03
2023-03-30T15:43:19.742Z,97139.69
2023-03-30T15:45:52.105Z,97124.78
2023-03-30T15:48:27.129Z,97128.13
2023-03-30T15:51:03.973Z,97135.59
2023-03-30T15:53:41.080Z,97150.69
2023-03-30T15:56:14.682Z,97154.44
2023-03-30T15:58:44.278Z,97152.50
2023-03-30T16:01:16.076Z,97173.97
2023-03-30T16:03:56.365Z,97167.06
2023-03-30T16:06:25.425Z,97153.75
2023-03-30T16:08:53.791Z,97178.09
2023-03-30T16:11:23.806Z,97167.25
2023-03-30T16:13:55.216Z,97170.19
2023-03-30T16:16:23.557Z,97172.03
2023-03-30T16:18:53.353Z,97159.34
2023-03-30T16:21:24.553Z,97159.41
2023-03-30T16:23:53.073Z,97158.22
2023-03-30T16:26:21.620Z,97172.00
2023-03-30T16:28:53.193Z,97164.84
2023-03-30T16:31:25.069Z,97175.59
2023-03-30T16:33:55.009Z,97159.19
2023-03-30T16:36:25.235Z,97160.69
2023-03-30T16:38:53.510Z,97155.97
2023-03-30T16:41:24.169Z,97155.97
2023-03-30T16:43:52.456Z,97153.13
2023-03-30T16:46:22.194Z,97150.44
2023-03-30T16:48:50.790Z,97148.81
2023-03-30T16:51:20.832Z,97144.94
2023-03-30T16:53:49.112Z,97135.31
2023-03-30T16:56:19.576Z,97141.38
2023-03-30T16:58:48.603Z,97122.88
2023-03-30T17:01:18.658Z,97132.72
2023-03-30T17:03:47.595Z,97140.53
2023-03-30T17:06:17.152Z,97141.00
2023-03-30T17:08:46.889Z,97152.91
2023-03-30T17:11:15.505Z,97160.34
2023-03-30T17:13:46.207Z,97161.81
2023-03-30T17:16:16.175Z,97163.06
2023-03-30T17:18:44.481Z,97169.88
2023-03-30T17:21:16.519Z,97208.72
2023-03-30T17:23:48.063Z,97297.06
2023-03-30T17:26:17.081Z,97283.47
2023-03-30T17:28:45.997Z,97266.97
2023-03-30T17:31:17.726Z,97239.78
2023-03-30T17:33:46.925Z,97234.50
2023-03-30T17:36:20.329Z,97244.97
2023-03-30T17:38:51.343Z,97250.69
2023-03-30T17:41:21.010Z,97236.50
2023-03-30T17:43:49.846Z,97239.28
2023-03-30T17:46:20.795Z,97229.06
2023-03-30T17:48:51.165Z,97214.13
2023-03-30T17:51:19.598Z,97228.13
2023-03-30T17:53:49.394Z,97236.81
2023-03-30T17:56:17.731Z,97231.53
2023-03-30T17:58:46.096Z,97227.56
2023-03-30T18:01:16.743Z,97222.59
2023-03-30T18:03:45.239Z,97227.41
2023-03-30T18:06:13.973Z,97232.09
2023-03-30T18:08:43.099Z,97238.41
2023-03-30T18:11:12.991Z,97258.22
2023-03-30T18:13:41.359Z,97260.06
2023-03-30T18:16:13.879Z,97279.69
2023-03-30T18:18:42.312Z,97275.06
2023-03-30T18:21:12.085Z,97265.28
2023-03-30T18:23:40.418Z,97275.25
2023-03-30T18:26:12.249Z,97314.53
2023-03-30T18:28:43.767Z,97325.53
2023-03-30T18:31:12.905Z,97283.78
2023-03-30T18:33:41.465Z,97276.31
2023-03-30T18:36:13.128Z,97276.66
2023-03-30T18:38:42.248Z,97282.16
2023-03-30T18:41:12.495Z,97274.34
2023-03-30T18:43:42.185Z,97278.81
2023-03-30T18:46:14.033Z,97286.34
2023-03-30T18:48:42.495Z,97292.63
2023-03-30T18:51:12.643Z,97286.69
2023-03-30T18:53:41.300Z,97285.34
2023-03-30T18:56:13.784Z,97302.31
2023-03-30T18:58:43.891Z,97311.13
2023-03-30T19:01:15.859Z,97313.94
2023-03-30T19:03:45.099Z,97310.44
2023-03-30T19:06:16.633Z,97301.78
2023-03-30T19:08:44.970Z,97303.66
2023-03-30T19:11:16.741Z,97307.28
2023-03-30T19:13:47.274Z,97305.47
2023-03-30T19:16:18.518Z,97306.31
2023-03-30T19:18:49.397Z,97301.97
2023-03-30T19:21:19.210Z,97298.66
2023-03-30T19:23:54.018Z,97298.66
2023-03-30T19:26:23.275Z,97298.00
2023-03-30T19:28:53.040Z,97299.97
2023-03-30T19:31:21.327Z,97301.00
2023-03-30T19:33:49.667Z,97306.47
2023-03-30T19:36:17.971Z,97311.13
2023-03-30T19:38:46.613Z,97314.13
2023-03-30T19:41:14.949Z,97309.16
2023-03-30T19:43:43.547Z,97314.78
2023-03-30T19:46:13.243Z,97315.91
2023-03-30T19:48:41.897Z,97317.25
2023-03-30T19:51:10.189Z,97312.28
2023-03-30T19:53:38.535Z,97309.28
2023-03-30T19:56:11.111Z,97320.25
2023-03-30T19:58:39.631Z,97308.97
2023-03-30T20:01:09.752Z,97312.94
2023-03-30T20:03:39.737Z,97322.25
2023-03-30T20:06:11.616Z,97318.09
2023-03-30T20:08:40.775Z,97325.72
2023-03-30T20:11:10.160Z,97313.59
2023-03-30T20:13:38.616Z,97323.06
2023-03-30T20:16:07.322Z,97330.38
2023-03-30T20:18:35.740Z,97324.69
2023-03-30T20:21:06.138Z,97323.22
2023-03-30T20:23:34.575Z,97322.69
2023-03-30T20:26:04.532Z,97327.53
2023-03-30T20:28:33.044Z,97321.53
2023-03-30T20:31:02.234Z,97324.34
2023-03-30T20:33:33.574Z,97325.84
2023-03-30T20:36:03.091Z,97324.84
2023-03-30T20:38:33.005Z,97323.34
2023-03-30T20:41:05.013Z,97323.50
2023-03-30T20:43:38.473Z,97319.19
2023-03-30T20:46:15.714Z,97319.50
2023-03-30T20:48:45.125Z,97330.97
2023-03-30T20:51:15.528Z,97323.47
2023-03-30T20:53:45.246Z,97326.66
2023-03-30T20:56:13.702Z,97322.47
2023-03-30T20:58:42.531Z,97314.03
2023-03-30T21:01:17.889Z,97320.16
2023-03-30T21:03:49.947Z,97320.31
2023-03-30T21:06:19.722Z,97313.34
2023-03-30T21:08:49.376Z,97320.47
2023-03-30T21:11:17.869Z,97312.66
2023-03-30T21:13:46.513Z,97312.84
2023-03-30T21:16:15.042Z,97308.69
2023-03-30T21:18:43.415Z,97308.69
2023-03-30T21:21:11.790Z,97317.66
2023-03-30T21:23:41.486Z,97308.03
2023-03-30T21:26:11.435Z,97302.88
2023-03-30T21:28:41.458Z,97302.03
2023-03-30T21:31:14.196Z,97300.41
2023-03-30T21:33:42.696Z,97295.91
2023-03-30T21:36:12.039Z,97287.28
2023-03-30T21:38:40.857Z,97284.94
2023-03-30T21:41:13.934Z,97281.28
2023-03-30T21:43:45.173Z,97284.28
2023-03-30T21:46:16.203Z,97282.63
2023-03-30T21:48:46.504Z,97279.28
2023-03-30T21:51:17.335Z,97275.94
2023-03-30T21:53:49.115Z,97275.31
2023-03-30T21:56:22.308Z,97269.31
2023-03-30T21:58:51.362Z,97266.78
2023-03-30T22:01:20.946Z,97268.75
2023-03-30T22:03:49.511Z,97260.31
2023-03-30T22:06:18.788Z,97261.28
2023-03-30T22:08:47.859Z,97272.06
2023-03-30T22:11:20.629Z,97273.22
2023-03-30T22:13:50.187Z,97268.22
2023-03-30T22:16:22.277Z,97261.44
2023-03-30T22:18:51.731Z,97264.25
2023-03-30T22:21:24.003Z,97263.72
2023-03-30T22:23:53.097Z,97261.22
2023-03-30T22:26:26.180Z,97251.78
2023-03-30T22:28:54.715Z,97250.44
2023-03-30T22:31:23.469Z,97256.72
2023-03-30T22:33:51.812Z,97250.78
2023-03-30T22:36:22.557Z,97237.97
2023-03-30T22:38:52.315Z,97239.94
2023-03-30T22:41:24.378Z,97232.16
2023-03-30T22:43:53.792Z,97234.97
2023-03-30T22:46:22.549Z,97229.66
2023-03-30T22:48:51.823Z,97228.97
2023-03-30T22:51:23.624Z,97229.31
2023-03-30T22:53:52.110Z,97221.66
2023-03-30T22:56:24.753Z,97226.97
2023-03-30T22:58:53.067Z,97214.72
2023-03-30T23:01:21.646Z,97213.22
2023-03-30T23:03:50.452Z,97208.88
2023-03-30T23:06:19.672Z,97219.50
2023-03-30T23:08:48.743Z,97215.34
2023-03-30T23:11:17.500Z,97217.31
2023-03-30T23:13:47.246Z,97222.78
2023-03-30T23:16:16.506Z,97211.53
2023-03-30T23:18:44.838Z,97211.00
2023-03-30T23:21:14.207Z,97212.00
2023-03-30T23:23:42.644Z,97211.31
2023-03-30T23:26:16.539Z,97203.66
2023-03-30T23:28:46.356Z,97210.97
2023-03-30T23:31:17.543Z,97214.59
2023-03-30T23:33:46.856Z,97198.19
2023-03-30T23:36:19.202Z,97192.06
2023-03-30T23:38:48.347Z,97188.88
2023-03-30T23:41:19.118Z,97179.44
2023-03-30T23:43:49.447Z,97185.88
2023-03-30T23:46:20.930Z,97180.06
2023-03-30T23:48:49.278Z,97172.44
2023-03-30T23:51:17.603Z,97184.34
2023-03-30T23:53:47.230Z,97191.22
2023-03-30T23:56:18.798Z,97175.97
2023-03-30T23:58:48.477Z,97174.47
